Latest Coastal Weather Observations for Yamba

IDN60701

Issued at 4:15 pm EDT Thursday 23 October 2014 (issued every 10 minutes, with the page automatically refreshed every 10 minutes)

About coastal observations | Map of coastal stations | Coastal observations for NSW | Marine services | Other Formats
Station Details ID: 058012 Name: YAMBA PILOT STATION Lat: -29.43 Lon: 153.36 Height: 27.4 m
Data from the previous 72 hours. | See also: Recent months at Yamba
Date/Time
EDT
Temp

°C
Wind Pressure Rain
since 9am
mm
Weather Cloud Vis
km
Sea
Height
m
Swell
Dir
 
Speed
knots
Gust
knots
hPa Trend Height
m
Period
s
Dir
23/04:00pm 22.9 NNE 9 16 1017.0 - 0.0 - - - - - - -
23/03:30pm 23.5 NNE 9 15 1017.0 - 0.0 - - - - - - -
23/03:00pm 23.8 N 8 13 1017.0 F 0.0 Fine Mostly clear 40 2 1.5 9 SE
23/02:30pm 23.8 NNE 10 16 1017.4 - 0.0 - - - - - - -
23/02:00pm 24.9 NNE 8 14 1017.9 - 0.0 - - - - - - -
23/01:30pm 24.9 NNE 9 14 1018.4 - 0.0 - - - - - - -
23/01:00pm 24.4 NNE 9 15 1018.8 - 0.0 - - - - - - -
23/12:30pm 24.8 NNE 7 14 1019.3 - 0.0 - - - - - - -
23/12:00pm 25.6 N 7 10 1019.7 - 0.0 - - - - - - -
23/11:30am 25.1 N 6 10 1020.2 - 0.0 - - - - - - -
23/11:00am 24.7 N 6 9 1020.9 - 0.0 - - - - - - -
23/10:30am 24.0 NW 6 8 1021.2 - 0.0 - - - - - - -
23/10:00am 23.1 NW 7 11 1021.6 - 0.0 - - - - - - -
23/09:30am 21.8 NW 8 13 1021.7 - 0.0 - - - - - - -
23/09:00am 20.9 NNW 7 10 1021.7 F 0.0 Fine Mostly clear 35 1 1.0 9 SE
23/08:30am 19.5 NNW 6 10 1021.9 - 0.0 - - - - - - -
23/08:00am 18.4 NW 7 11 1022.1 - 0.0 - - - - - - -
23/07:30am 17.2 NW 6 9 1021.9 - 0.0 - - - - - - -
23/07:00am 16.2 NW 6 10 1021.9 - 0.0 - - - - - - -
23/06:30am 15.5 NNW 4 6 1021.5 - 0.0 - - - - - - -
23/06:00am 15.6 W 4 6 1021.3 - 0.0 - - - - - - -
23/05:30am 15.9 W 4 6 1021.2 - 0.0 - - - - - - -
23/05:00am 16.3 W 5 6 1021.1 - 0.0 - - - - - - -
23/04:30am 16.1 W 5 7 1021.0 - 0.0 - - - - - - -
23/04:00am 16.2 WNW 6 7 1021.1 - 0.0 - - - - - - -
23/03:30am 16.0 W 5 7 1021.4 - 0.0 - - - - - - -
23/03:00am 16.1 WSW 6 7 1021.6 - 0.0 - - - - - - -
23/02:30am 16.1 WSW 5 7 1022.0 - 0.0 - - - - - - -
23/02:00am 16.4 WSW 5 7 1022.3 - 0.0 - - - - - - -
23/01:30am 16.3 W 6 6 1022.4 - 0.0 - - - - - - -
23/01:00am 16.1 WSW 6 7 1022.7 - 0.0 - - - - - - -
23/12:30am 15.9 WSW 4 5 1022.8 - 0.0 - - - - - - -
23/12:00am 16.6 W 4 5 1023.0 - 0.0 - - - - - - -
 
Date/Time
EDT
Temp

°C
Wind Pressure Rain
since 9am
mm
Weather Cloud Vis
km
Sea
Height
m
Swell
Dir
 
Speed
knots
Gust
knots
hPa Trend Height
m
Period
s
Dir
22/11:30pm 17.3 W 5 6 1023.3 - 0.0 - - - - - - -
22/11:00pm 18.7 NNE 3 6 1023.5 - 0.0 - - - - - - -
22/10:30pm 18.6 NNE 4 7 1023.6 - 0.0 - - - - - - -
22/10:00pm 18.7 ENE 5 7 1023.6 - 0.0 - - - - - - -
22/09:30pm 18.8 ENE 5 8 1023.6 - 0.0 - - - - - - -
22/09:00pm 18.9 ENE 6 8 1023.5 - 0.0 - - - - - - -
22/08:30pm 18.9 ENE 6 9 1023.5 - 0.0 - - - - - - -
22/08:00pm 19.0 E 6 8 1023.5 - 0.0 - - - - - - -
22/07:30pm 19.1 E 6 8 1023.4 - 0.0 - - - - - - -
22/07:00pm 19.3 E 6 8 1023.3 - 0.0 - - - - - - -
22/06:30pm 19.6 E 6 8 1023.1 - 0.0 - - - - - - -
22/06:00pm 20.2 E 6 9 1022.9 - 0.0 - - - - - - -
22/05:30pm 20.6 E 6 9 1023.0 - 0.0 - - - - - - -
22/05:00pm 21.0 E 6 9 1022.9 - 0.0 - - - - - - -
22/04:30pm 21.1 E 7 11 1022.9 - 0.0 - - - - - - -
22/04:00pm 20.8 ESE 10 13 1023.2 - 0.0 - - - - - - -
22/03:30pm 21.1 E 8 12 1023.5 - 0.0 - - - - - - -
22/03:00pm 21.8 ESE 7 10 1023.9 F 0.0 Fine Mostly clear 45 1 1.5 8 SE
22/02:30pm 22.2 ESE 8 12 1024.3 - 0.0 - - - - - - -
22/02:00pm 21.5 SE 10 13 1024.6 - 0.0 - - - - - - -
22/01:30pm 21.2 SE 11 14 1025.1 - 0.0 - - - - - - -
22/01:00pm 21.4 SE 9 13 1025.6 - 0.0 - - - - - - -
22/12:30pm 20.3 ESE 9 13 1026.0 - 0.0 - - - - - - -
22/12:00pm 21.9 SE 12 15 1026.2 - 0.0 - - - - - - -
22/11:30am 20.4 SSE 12 18 1026.5 - 0.0 - - - - - - -
22/11:00am 20.9 SSE 10 14 1026.6 - 0.0 - - - - - - -
22/10:30am 20.6 SSE 10 15 1026.6 - 0.0 - - - - - - -
22/10:00am 20.3 SSE 9 12 1026.8 - 0.0 - - - - - - -
22/09:30am 18.9 S 8 12 1026.9 - 0.0 - - - - - - -
22/09:00am 17.4 S 6 8 1026.7 F 1.6 Fine Mostly cloudy 30 1 1.5 8 SE
22/08:30am 17.0 SSW 6 9 1026.5 - 1.6 - - - - - - -
22/08:00am 16.5 SSW 5 9 1026.3 - 1.6 - - - - - - -
22/07:30am 15.6 SSW 5 9 1026.3 - 1.6 - - - - - - -
22/07:00am 14.8 SSW 5 7 1026.3 - 1.6 - - - - - - -
22/06:30am 14.5 WSW 4 6 1026.1 - 1.6 - - - - - - -
22/06:00am 14.6 WSW 4 6 1025.9 - 1.6 - - - - - - -
22/05:30am 14.8 SW 5 8 1026.0 - 1.6 - - - - - - -
22/05:00am 15.0 SSW 6 8 1025.9 - 1.6 - - - - - - -
22/04:30am 15.1 S 7 9 1026.2 - 1.4 - - - - - - -
22/04:00am 15.2 SSW 4 6 1026.3 - 1.4 - - - - - - -
22/03:30am 15.1 SSW 5 8 1026.3 - 1.4 - - - - - - -
22/03:00am 15.1 S 8 13 1026.7 - 1.4 - - - - - - -
22/02:30am 15.2 SSW 5 8 1026.9 - 1.4 - - - - - - -
22/02:00am 15.3 SW 4 6 1027.2 - 1.4 - - - - - - -
22/01:30am 15.3 SW 5 7 1027.6 - 1.4 - - - - - - -
22/01:00am 15.6 SSW 5 7 1028.1 - 1.4 - - - - - - -
22/12:30am 15.6 SW 3 6 1028.4 - 1.4 - - - - - - -
22/12:00am 16.0 S 6 11 1028.8 - 1.2 - - - - - - -
 
Date/Time
EDT
Temp

°C
Wind Pressure Rain
since 9am
mm
Weather Cloud Vis
km
Sea
Height
m
Swell
Dir
 
Speed
knots
Gust
knots
hPa Trend Height
m
Period
s
Dir
21/11:30pm 16.7 SSE 9 13 1029.0 - 0.2 - - - - - - -
21/11:00pm 17.4 SSE 9 15 1029.0 - 0.2 - - - - - - -
21/10:30pm 18.0 SSE 11 15 1029.2 - 0.2 - - - - - - -
21/10:00pm 18.2 SSE 13 20 1029.2 - 0.2 - - - - - - -
21/09:30pm 18.0 SE 13 17 1028.9 - 0.2 - - - - - - -
21/09:00pm 18.1 SE 18 23 1028.8 - 0.2 - - - - - - -
21/08:30pm 18.4 SE 16 19 1028.6 - 0.2 - - - - - - -
21/08:00pm 18.8 SSE 14 20 1028.4 - 0.2 - - - - - - -
21/07:30pm 18.4 SSE 12 17 1028.2 - 0.2 - - - - - - -
21/07:00pm 18.0 SSE 11 19 1027.9 - 0.2 - - - - - - -
21/06:30pm 18.5 SE 16 19 1027.9 - 0.2 - - - - - - -
21/06:00pm 19.2 SE 18 25 1027.6 - 0.2 - - - - - - -
21/05:30pm 19.5 SSE 19 27 1027.3 - 0.2 - - - - - - -
21/05:16pm 19.6 SSE 15 25 1027.2 - 0.2 - - - - - - -
21/05:15pm 19.6 SSE 15 25 1027.2 - 0.2 - - - - - - -
21/05:00pm 20.1 SSE 14 22 1027.3 - 0.2 - - - - - - -
21/04:30pm 20.5 SSE 13 20 1027.2 - 0.2 - - - - - - -
21/04:00pm 20.6 S 13 21 1027.3 - 0.2 - - - - - - -
21/03:30pm 20.4 SSE 14 23 1027.6 - 0.2 - - - - - - -
21/03:12pm 19.5 SSE 15 27 1027.8 - 0.2 - - - - - - -
21/03:11pm 19.5 SSE 15 27 1027.8 - 0.2 - - - - - - -
21/03:00pm 20.4 SSE 14 21 1027.9 R 0.2 Fine Mostly cloudy 30 3 2.0 8 SE
21/02:30pm 19.1 S 10 16 1028.4 - 0.2 - - - - - - -
21/02:03pm 20.2 SSE 16 28 1028.5 - 0.2 - - - - - - -
21/02:02pm 20.2 SSE 16 28 1028.5 - 0.2 - - - - - - -
21/02:00pm 21.0 SSE 15 21 1028.4 - 0.2 - - - - - - -
21/01:30pm 20.3 SSE 14 21 1028.7 - 0.2 - - - - - - -
21/01:00pm 20.4 SSE 15 22 1028.8 - 0.2 - - - - - - -
21/12:30pm 20.4 S 13 21 1029.1 - 0.2 - - - - - - -
21/12:00pm 19.3 SSE 15 24 1029.2 - 0.2 - - - - - - -
21/11:30am 19.8 SSE 12 20 1029.3 - 0.2 - - - - - - -
21/11:00am 18.5 S 12 20 1029.5 - 0.2 - - - - - - -
21/10:30am 18.0 S 11 17 1029.5 - 0.2 - - - - - - -
21/10:00am 17.7 S 11 19 1029.6 - 0.0 - - - - - - -
21/09:30am 18.4 S 12 18 1029.3 - 0.0 - - - - - - -
21/09:00am 18.3 S 12 19 1029.0 - 0.6 - - - - - - -
21/08:50am - - - - - - - - - - 3 2.0 8 SE
21/08:30am 18.3 S 11 18 1028.8 - 0.6 - - - - - - -
21/08:00am 18.2 S 11 20 1028.9 R 0.6 Fine Cloudy 30 3 1.0 - SE
21/07:30am 18.7 S 11 18 1028.0 - 0.6 - - - - - - -
21/07:00am 18.0 S 10 15 1027.8 - 0.6 - - - - - - -
21/06:30am 17.5 S 9 12 1027.4 - 0.6 - - - - - - -
21/06:00am 17.4 S 9 15 1027.0 - 0.6 - - - - - - -
21/05:30am 17.4 S 10 16 1026.9 - 0.6 - - - - - - -
21/05:00am 17.6 S 8 11 1026.7 - 0.6 - - - - - - -
21/04:30am 18.8 SSE 13 22 1026.6 - 0.6 - - - - - - -
21/04:00am 18.0 S 8 11 1026.6 - 0.6 - - - - - - -
21/03:30am 17.8 S 10 14 1026.4 - 0.6 - - - - - - -
21/03:00am 17.8 S 10 17 1026.4 - 0.6 - - - - - - -
21/02:30am 17.9 S 12 17 1026.9 - 0.6 - - - - - - -
21/02:00am 18.1 S 12 17 1026.9 - 0.6 - - - - - - -
21/01:30am 18.0 S 10 15 1027.2 - 0.6 - - - - - - -
21/01:00am 18.2 S 10 15 1027.4 - 0.6 - - - - - - -
21/12:30am 18.5 S 9 13 1027.6 - 0.4 - - - - - - -
21/12:00am 18.6 S 10 18 1027.8 - 0.0 - - - - - - -
 
Date/Time
EDT
Temp

°C
Wind Pressure Rain
since 9am
mm
Weather Cloud Vis
km
Sea
Height
m
Swell
Dir
 
Speed
knots
Gust
knots
hPa Trend Height
m
Period
s
Dir
20/11:30pm 19.0 S 13 21 1027.7 - 0.0 - - - - - - -
20/11:00pm 19.5 S 12 19 1027.8 - 0.0 - - - - - - -
20/10:30pm 19.8 S 12 21 1027.6 - 0.0 - - - - - - -
20/10:00pm 19.8 S 13 20 1027.7 - 0.0 - - - - - - -
20/09:30pm 19.8 S 12 19 1027.5 - 0.0 - - - - - - -
20/09:00pm 19.9 S 14 25 1027.1 - 0.0 - - - - - - -
20/08:30pm 19.9 S 13 20 1026.9 - 0.0 - - - - - - -
20/08:02pm 20.0 S 15 25 1026.6 - 0.0 - - - - - - -
20/08:00pm 20.1 S 14 25 1026.6 - 0.0 - - - - - - -
20/07:41pm 20.2 S 15 25 1026.3 - 0.0 - - - - - - -
20/07:30pm 20.2 S 14 23 1026.1 - 0.0 - - - - - - -
20/07:09pm 20.1 S 15 25 1025.8 - 0.0 - - - - - - -
20/07:08pm 20.1 S 15 25 1025.8 - 0.0 - - - - - - -
20/07:00pm 20.2 S 14 23 1025.7 - 0.0 - - - - - - -
20/06:30pm 20.5 SSE 16 27 1025.4 - 0.0 - - - - - - -
20/06:06pm 20.8 SSE 16 27 1025.2 - 0.0 - - - - - - -
20/06:05pm 20.8 SSE 16 27 1025.2 - 0.0 - - - - - - -
20/06:00pm 20.8 SSE 17 25 1025.0 - 0.0 - - - - - - -
20/05:30pm 21.5 SSE 19 30 1024.9 - 0.0 - - - - - - -
20/05:02pm 21.7 SSE 17 28 1024.5 - 0.0 - - - - - - -
20/05:01pm 21.7 SSE 17 28 1024.5 - 0.0 - - - - - - -
20/05:00pm 21.8 SSE 16 25 1024.5 - 0.0 - - - - - - -
20/04:59pm 21.5 SE 16 25 1024.5 - 0.0 - - - - - - -
20/04:30pm 22.4 SE 15 19 1024.3 - 0.0 - - - - - - -

Other Formats:

Comma delimited format used in spreadsheet applications
http://www.bom.gov.au/fwo/IDN60701/IDN60701.94589.axf

JavaScript Object Notation format (JSON) in row-major order
http://www.bom.gov.au/fwo/IDN60701/IDN60701.94589.json